Siloam Springs, AR

6:30 PM CDT on March 27, 2017 (GMT -0500)
Smith

Weather History for KSLG - February, 2014

Change the Weather History Date:

Sunday, February 2, 2014

  Actual Average Record
Temperature  
Mean Temperature 20 °F -  
Max Temperature 28 °F 45 °F 66 °F (2012)
Min Temperature 10 °F 28 °F 3 °F (2011)
Degree Days  
Heating Degree Days 45    
Moisture  
Dew Point 17 °F    
Average Humidity 75    
Maximum Humidity 80    
Minimum Humidity 63    
Precipitation  
Precipitation 0.00 in - - ()
Sea Level Pressure  
Sea Level Pressure 30.21 in    
Wind  
Wind Speed 11 mph (NW)    
Max Wind Speed 16 mph    
Max Gust Speed 23 mph    
Averages and records for this station are not official NWS values.
T = Trace of Precipitation, MM = Missing Value Source: NWS Daily Summary

Daily Weather History Graph

Daily Weather History Graph

Search for Another Location

Airport or City:

Trip Planner

Search our weather history database for the weather conditions in past years. The results will help you decide how hot, cold, wet, or windy it might be!

Date:

Astronomy

Feb. 02, 2014 Rise Set
Actual Time 7:18 AM CST 5:45 PM CST
Civil Twilight 6:51 AM CST 6:12 PM CST
Nautical Twilight 6:20 AM CST 6:43 PM CST
Astronomical Twilight 5:50 AM CST 7:13 PM CST
Moon 8:52 AM CST (2/2) 9:22 PM CST (2/2)
Length of Visible Light 11h 21m
Length of Day
10h 27m
Waxing Crescent, 11% of the Moon is Illuminated
Feb 2
Waxing Crescent
Feb 6
First Quarter
Feb 14
Full
Feb 22
Last Quarter
Mar 1
New

Hourly Weather History & Observations

Time (CST) Temp. Windchill Dew Point Humidity Pressure Visibility Wind Dir Wind Speed Gust Speed Precip Events Conditions
12:15 AM 28.4 °F 17.5 °F 21.2 °F 74% 30.12 in - WNW 13.8 mph - N/A   Overcast
12:35 AM 28.4 °F 17.0 °F 21.2 °F 74% 30.13 in - WNW 15.0 mph - N/A   Overcast
12:55 AM 28.4 °F 16.6 °F 21.2 °F 74% 30.14 in - WNW 16.1 mph - N/A   Overcast
1:15 AM 26.6 °F 16.8 °F 21.2 °F 80% 30.13 in - WNW 10.4 mph - N/A   Overcast
1:35 AM 26.6 °F 14.7 °F 21.2 °F 80% 30.13 in - WNW 15.0 mph - N/A   Overcast
1:55 AM 26.6 °F 16.8 °F 21.2 °F 80% 30.13 in - WNW 10.4 mph - N/A   Overcast
2:15 AM 26.6 °F 14.3 °F 19.4 °F 74% 30.13 in - WNW 16.1 mph 23.0 mph N/A   Overcast
2:35 AM 26.6 °F 15.7 °F 19.4 °F 74% 30.14 in - WNW 12.7 mph 19.6 mph N/A   Overcast
2:55 AM 26.6 °F 14.3 °F 19.4 °F 74% 30.14 in - WNW 16.1 mph - N/A   Overcast
3:15 AM 26.6 °F 16.2 °F 19.4 °F 74% 30.13 in - NW 11.5 mph 19.6 mph N/A   Overcast
3:35 AM 26.6 °F 16.2 °F 19.4 °F 74% 30.14 in - WNW 11.5 mph 21.9 mph N/A   Overcast
3:55 AM 26.6 °F 16.8 °F 19.4 °F 74% 30.15 in - NW 10.4 mph 20.7 mph N/A   Overcast
4:15 AM 26.6 °F 16.8 °F 19.4 °F 74% 30.14 in - NW 10.4 mph 19.6 mph N/A   Overcast
4:35 AM 26.6 °F 16.8 °F 19.4 °F 74% 30.15 in - NNW 10.4 mph 17.3 mph N/A   Overcast
4:55 AM 26.6 °F 17.5 °F 19.4 °F 74% 30.16 in - NNW 9.2 mph - N/A   Overcast
5:15 AM 26.6 °F 17.5 °F 19.4 °F 74% 30.17 in - NW 9.2 mph 17.3 mph N/A   Overcast
5:35 AM 26.6 °F 16.8 °F 19.4 °F 74% 30.17 in - NW 10.4 mph - N/A   Overcast
5:55 AM 26.6 °F 15.7 °F 19.4 °F 74% 30.19 in - WNW 12.7 mph 17.3 mph N/A   Overcast
6:15 AM 26.6 °F 14.7 °F 19.4 °F 74% 30.19 in - WNW 15.0 mph - N/A   Overcast
6:35 AM 26.6 °F 15.2 °F 19.4 °F 74% 30.20 in - WNW 13.8 mph 20.7 mph N/A   Overcast
6:55 AM 26.6 °F 16.2 °F 19.4 °F 74% 30.20 in - NW 11.5 mph 18.4 mph N/A   Overcast
7:15 AM 26.6 °F 15.7 °F 19.4 °F 74% 30.19 in - NW 12.7 mph - N/A   Overcast
7:35 AM 26.6 °F 15.7 °F 19.4 °F 74% 30.17 in - NW 12.7 mph - N/A   Overcast
7:55 AM 26.6 °F 18.2 °F 19.4 °F 74% 30.19 in - NNW 8.1 mph - N/A   Overcast
8:15 AM 26.6 °F 16.8 °F 19.4 °F 74% 30.20 in - North 10.4 mph - N/A   Overcast
8:35 AM 26.6 °F 15.7 °F 19.4 °F 74% 30.19 in - NNW 12.7 mph 17.3 mph N/A   Overcast
8:55 AM 26.6 °F 16.8 °F 19.4 °F 74% 30.20 in - NNW 10.4 mph 16.1 mph N/A   Overcast
9:15 AM 26.6 °F 17.5 °F 19.4 °F 74% 30.21 in - NW 9.2 mph - N/A   Overcast
9:35 AM 26.6 °F 16.8 °F 19.4 °F 74% 30.20 in - NW 10.4 mph 16.1 mph N/A   Overcast
9:55 AM 26.6 °F 19.1 °F 19.4 °F 74% 30.24 in - NW 6.9 mph - N/A   Overcast
10:15 AM 26.6 °F 18.2 °F 21.2 °F 80% 30.28 in - WNW 8.1 mph - N/A   Overcast
10:35 AM 26.6 °F 18.2 °F 21.2 °F 80% 30.26 in - WNW 8.1 mph - N/A   Overcast
10:55 AM 26.6 °F 18.2 °F 21.2 °F 80% 30.25 in - NW 8.1 mph - N/A   Overcast
11:15 AM 26.6 °F 16.2 °F 19.4 °F 74% 30.23 in - NW 11.5 mph - N/A   Overcast
11:35 AM 24.8 °F 15.3 °F 19.4 °F 80% 30.24 in - WNW 9.2 mph - N/A   Overcast
11:55 AM 24.8 °F 15.3 °F 19.4 °F 80% 30.25 in - NW 9.2 mph - N/A   Overcast
12:15 PM 24.8 °F 15.3 °F 19.4 °F 80% 30.24 in - NW 9.2 mph - N/A   Overcast
12:35 PM 24.8 °F 13.4 °F 19.4 °F 80% 30.22 in - WNW 12.7 mph - N/A   Overcast
12:55 PM 24.8 °F 12.9 °F 19.4 °F 80% 30.21 in - WNW 13.8 mph - N/A   Overcast
1:15 PM 24.8 °F 13.4 °F 19.4 °F 80% 30.19 in - WNW 12.7 mph - N/A   Overcast
1:35 PM 24.8 °F 13.4 °F 17.6 °F 74% 30.19 in - NW 12.7 mph - N/A   Overcast
1:55 PM 24.8 °F 14.6 °F 17.6 °F 74% 30.19 in - NW 10.4 mph - N/A   Overcast
2:15 PM 24.8 °F 14.6 °F 17.6 °F 74% 30.19 in - NW 10.4 mph - N/A   Overcast
2:35 PM 24.8 °F 14.0 °F 17.6 °F 74% 30.18 in - NW 11.5 mph - N/A   Overcast
2:55 PM 24.8 °F 14.0 °F 17.6 °F 74% 30.18 in - NW 11.5 mph - N/A   Overcast
3:15 PM 24.8 °F 15.3 °F 17.6 °F 74% 30.19 in - NNW 9.2 mph - N/A   Overcast
3:35 PM 24.8 °F 15.3 °F 17.6 °F 74% 30.21 in - NNW 9.2 mph - N/A   Overcast
3:55 PM 23.0 °F 12.4 °F 17.6 °F 80% 30.22 in - NW 10.4 mph - N/A   Overcast
4:15 PM 24.8 °F 14.0 °F 15.8 °F 69% 30.19 in - NW 11.5 mph 17.3 mph N/A   Overcast
4:35 PM 24.8 °F 13.4 °F 15.8 °F 69% 30.21 in - NW 12.7 mph - N/A   Mostly Cloudy
4:55 PM 23.0 °F 10.6 °F 15.8 °F 74% 30.21 in - WNW 13.8 mph - N/A   Overcast
5:15 PM 23.0 °F 13.9 °F 15.8 °F 74% 30.25 in - WNW 8.1 mph - N/A   Mostly Cloudy
5:35 PM 23.0 °F 11.7 °F 15.8 °F 74% 30.25 in - NW 11.5 mph - N/A   Mostly Cloudy
5:55 PM 23.0 °F 14.7 °F 15.8 °F 74% 30.23 in - NW 6.9 mph - N/A   Scattered Clouds
6:15 PM 21.2 °F 10.9 °F 14.0 °F 74% 30.22 in - NW 9.2 mph - N/A   Partly Cloudy
6:35 PM 21.2 °F 12.6 °F 12.2 °F 68% 30.23 in - NNW 6.9 mph - N/A   Partly Cloudy
6:55 PM 21.2 °F 14.9 °F 12.2 °F 68% 30.24 in - NW 4.6 mph - N/A   Clear
7:15 PM 21.2 °F 13.6 °F 10.4 °F 63% 30.24 in - WNW 5.8 mph - N/A   Clear
7:35 PM 17.6 °F 9.3 °F 8.6 °F 68% 30.25 in - NW 5.8 mph - N/A   Clear
7:55 PM 19.4 °F 12.8 °F 10.4 °F 68% 30.25 in - NW 4.6 mph - N/A   Clear
8:15 PM 17.6 °F 12.3 °F 10.4 °F 73% 30.26 in - WNW 3.5 mph - N/A   Clear
8:35 PM 17.6 °F 12.3 °F 10.4 °F 73% 30.26 in - WNW 3.5 mph - N/A   Clear
8:55 PM 17.6 °F 10.7 °F 8.6 °F 68% 30.25 in - NW 4.6 mph - N/A   Clear
9:15 PM 15.8 °F 10.2 °F 8.6 °F 73% 30.26 in - WNW 3.5 mph - N/A   Clear
9:35 PM 15.8 °F 10.2 °F 8.6 °F 73% 30.26 in - WNW 3.5 mph - N/A   Clear
9:55 PM 14.0 °F 6.5 °F 8.6 °F 79% 30.26 in - NW 4.6 mph - N/A   Clear
10:15 PM 15.8 °F 10.2 °F 8.6 °F 73% 30.27 in - WNW 3.5 mph - N/A   Clear
10:35 PM 14.0 °F 5.1 °F 8.6 °F 79% 30.26 in - NW 5.8 mph - N/A   Clear
10:55 PM 14.0 °F 8.2 °F 8.6 °F 79% 30.26 in - NNW 3.5 mph - N/A   Clear
11:15 PM 14.0 °F 8.2 °F 8.6 °F 79% 30.26 in - NW 3.5 mph - N/A   Clear
11:35 PM 12.2 °F - 6.8 °F 79% 30.27 in - Calm Calm - N/A   Clear
11:55 PM 10.4 °F 4.0 °F 5.0 °F 79% 30.27 in - NW 3.5 mph - N/A   Clear